createdAt,value
2018-08-22T00:00:05.443Z,4.83
2018-08-22T00:02:33.696Z,4.47
2018-08-22T00:05:01.892Z,4.57
2018-08-22T00:07:30.083Z,4.60
2018-08-22T00:09:58.288Z,4.50
2018-08-22T00:12:26.500Z,4.60
2018-08-22T00:14:54.688Z,4.83
2018-08-22T00:17:22.908Z,5.23
2018-08-22T00:19:51.111Z,4.57
2018-08-22T00:22:19.376Z,4.33
2018-08-22T00:24:47.555Z,4.30
2018-08-22T00:27:15.772Z,4.63
2018-08-22T00:29:44.026Z,4.63
2018-08-22T00:32:12.168Z,4.97
2018-08-22T00:34:40.391Z,4.80
2018-08-22T00:37:08.587Z,5.03
2018-08-22T00:39:36.805Z,4.73
2018-08-22T00:42:05.304Z,5.23
2018-08-22T00:44:33.523Z,4.33
2018-08-22T00:47:01.724Z,5.40
2018-08-22T00:49:29.959Z,4.90
2018-08-22T00:51:58.189Z,4.93
2018-08-22T00:54:26.411Z,4.53
2018-08-22T00:56:54.839Z,4.73
2018-08-22T00:59:23.239Z,5.17
2018-08-22T01:01:51.632Z,5.33
2018-08-22T01:04:19.980Z,5.07
2018-08-22T01:06:48.231Z,5.13
2018-08-22T01:09:16.435Z,4.97
2018-08-22T01:11:44.652Z,4.70
2018-08-22T01:14:12.998Z,5.27
2018-08-22T01:16:41.196Z,5.13
2018-08-22T01:19:09.380Z,5.03
2018-08-22T01:21:37.603Z,5.43
2018-08-22T01:24:05.792Z,5.40
2018-08-22T01:26:34.023Z,5.40
2018-08-22T01:29:02.210Z,5.17
2018-08-22T01:31:30.403Z,4.87
2018-08-22T01:33:58.636Z,5.43
2018-08-22T01:36:26.860Z,5.50
2018-08-22T01:38:55.065Z,5.77
2018-08-22T01:41:23.300Z,5.87
2018-08-22T01:43:51.495Z,6.00
2018-08-22T01:46:19.715Z,6.17
2018-08-22T01:48:47.931Z,5.83
2018-08-22T01:51:16.143Z,6.10
2018-08-22T01:53:44.428Z,5.30
2018-08-22T01:56:12.625Z,5.53
2018-08-22T01:58:40.852Z,5.57
2018-08-22T02:01:09.046Z,5.40
2018-08-22T02:03:37.249Z,5.63
2018-08-22T02:06:05.431Z,5.80
2018-08-22T02:08:33.640Z,6.10
2018-08-22T02:11:01.827Z,6.00
2018-08-22T02:13:30.045Z,5.23
2018-08-22T02:15:58.267Z,5.80
2018-08-22T02:18:26.471Z,6.57
2018-08-22T02:20:54.682Z,7.50
2018-08-22T02:23:22.910Z,6.20
2018-08-22T02:25:51.113Z,6.00
2018-08-22T02:28:19.313Z,5.93
2018-08-22T02:30:47.524Z,5.23
2018-08-22T02:33:15.784Z,6.00
2018-08-22T02:35:44.003Z,6.03
2018-08-22T02:38:16.008Z,5.80
2018-08-22T02:40:44.230Z,6.40
2018-08-22T02:43:12.448Z,6.17
2018-08-22T02:45:40.673Z,5.90
2018-08-22T02:48:09.017Z,5.50
2018-08-22T02:50:37.212Z,5.57
2018-08-22T02:53:05.427Z,5.17
2018-08-22T02:55:33.656Z,6.40
2018-08-22T02:58:01.877Z,6.03
2018-08-22T03:00:30.097Z,6.70
2018-08-22T03:02:58.314Z,6.10
2018-08-22T03:05:26.535Z,6.10
2018-08-22T03:07:54.745Z,6.33
2018-08-22T03:10:22.980Z,6.10
2018-08-22T03:12:51.184Z,6.00
2018-08-22T03:15:19.408Z,6.13
2018-08-22T03:17:47.596Z,5.87
2018-08-22T03:20:15.813Z,5.53
2018-08-22T03:22:44.116Z,6.23
2018-08-22T03:25:12.356Z,5.97
2018-08-22T03:27:40.541Z,6.33
2018-08-22T03:30:08.760Z,6.30
2018-08-22T03:32:36.966Z,5.77
2018-08-22T03:35:05.169Z,6.33
2018-08-22T03:37:33.432Z,6.37
2018-08-22T03:40:01.668Z,5.43
2018-08-22T03:42:29.868Z,6.20
2018-08-22T03:44:58.108Z,6.30
2018-08-22T03:47:26.296Z,6.97
2018-08-22T03:49:54.501Z,6.30
2018-08-22T03:52:22.688Z,6.53
2018-08-22T03:54:50.904Z,6.17
2018-08-22T03:57:19.160Z,5.83
2018-08-22T03:59:47.412Z,5.90
2018-08-22T04:02:15.607Z,6.47
2018-08-22T04:04:43.836Z,6.60
2018-08-22T04:07:12.064Z,6.53
2018-08-22T04:09:40.288Z,6.00
2018-08-22T04:12:08.512Z,6.00
2018-08-22T04:14:36.703Z,6.73
2018-08-22T04:17:05.216Z,6.57
2018-08-22T04:19:33.445Z,6.47
2018-08-22T04:22:01.644Z,6.80
2018-08-22T04:24:29.855Z,7.40
2018-08-22T04:26:58.100Z,7.33
2018-08-22T04:29:26.546Z,7.73
2018-08-22T04:31:54.732Z,7.13
2018-08-22T04:34:22.925Z,6.60
2018-08-22T04:36:51.165Z,6.83
2018-08-22T04:39:19.446Z,6.60
2018-08-22T04:41:47.660Z,7.20
2018-08-22T04:44:15.915Z,7.23
2018-08-22T04:46:44.136Z,6.93
2018-08-22T04:49:12.356Z,7.13
2018-08-22T04:51:40.572Z,6.20
2018-08-22T04:54:08.783Z,6.40
2018-08-22T04:56:37.012Z,7.17
2018-08-22T04:59:05.280Z,7.33
2018-08-22T05:01:33.483Z,6.73
2018-08-22T05:04:01.696Z,6.77
2018-08-22T05:06:29.941Z,6.50
2018-08-22T05:08:58.148Z,6.93
2018-08-22T05:11:26.339Z,6.77
2018-08-22T05:13:54.552Z,6.77
2018-08-22T05:16:22.747Z,6.60
2018-08-22T05:18:51.005Z,6.80
2018-08-22T05:21:19.228Z,7.03
2018-08-22T05:23:47.463Z,7.47
2018-08-22T05:26:15.704Z,7.37
2018-08-22T05:28:43.904Z,6.83
2018-08-22T05:31:12.138Z,6.13
2018-08-22T05:33:40.408Z,6.90
2018-08-22T05:36:08.635Z,6.73
2018-08-22T05:38:36.989Z,6.07
2018-08-22T05:41:05.216Z,6.50
2018-08-22T05:43:33.532Z,6.43
2018-08-22T05:46:01.742Z,6.60
2018-08-22T05:48:29.968Z,7.30
2018-08-22T05:50:58.204Z,6.07
2018-08-22T05:53:26.433Z,7.23
2018-08-22T05:55:54.629Z,6.93
2018-08-22T05:58:22.852Z,6.83
2018-08-22T06:00:51.040Z,6.73
2018-08-22T06:03:19.323Z,6.40
2018-08-22T06:05:47.472Z,6.30
2018-08-22T06:08:15.708Z,6.67
2018-08-22T06:10:43.967Z,6.67
2018-08-22T06:13:12.188Z,8.17
2018-08-22T06:15:40.462Z,7.50
2018-08-22T06:18:08.640Z,6.40
2018-08-22T06:20:36.837Z,7.20
2018-08-22T06:23:05.068Z,7.57
2018-08-22T06:25:33.317Z,8.20
2018-08-22T06:28:01.579Z,7.33
2018-08-22T06:30:29.792Z,7.83
2018-08-22T06:32:58.478Z,7.50
2018-08-22T06:35:26.683Z,8.00
2018-08-22T06:37:54.936Z,8.33
2018-08-22T06:40:23.109Z,7.53
2018-08-22T06:42:51.343Z,7.87
2018-08-22T06:45:19.548Z,7.67
2018-08-22T06:47:47.780Z,7.27
2018-08-22T06:50:16.048Z,6.37
2018-08-22T06:52:44.272Z,6.57
2018-08-22T06:55:12.492Z,6.10
2018-08-22T06:57:40.720Z,6.83
2018-08-22T07:00:08.921Z,5.73
2018-08-22T07:02:37.125Z,5.80
2018-08-22T07:05:05.677Z,6.17
2018-08-22T07:07:33.894Z,6.63
2018-08-22T07:10:02.140Z,5.50
2018-08-22T07:12:30.373Z,5.53
2018-08-22T07:14:58.616Z,5.63
2018-08-22T07:17:26.827Z,5.30
2018-08-22T07:19:55.029Z,5.33
2018-08-22T07:22:23.236Z,5.43
2018-08-22T07:24:51.436Z,5.53
2018-08-22T07:27:19.653Z,5.43
2018-08-22T07:29:47.913Z,5.27
2018-08-22T07:32:16.128Z,5.40
2018-08-22T07:34:44.363Z,5.73
2018-08-22T07:37:12.582Z,4.70
2018-08-22T07:39:40.801Z,5.17
2018-08-22T07:42:09.025Z,5.23
2018-08-22T07:44:37.237Z,5.10
2018-08-22T07:47:05.513Z,5.17
2018-08-22T07:49:33.708Z,5.77
2018-08-22T07:52:01.954Z,5.47
2018-08-22T07:54:46.579Z,5.53
2018-08-22T07:57:17.077Z,5.37
2018-08-22T07:59:45.292Z,5.77
2018-08-22T08:02:13.529Z,4.73
2018-08-22T08:04:41.732Z,5.07
2018-08-22T08:07:09.927Z,4.97
2018-08-22T08:09:38.260Z,4.73
2018-08-22T08:12:06.371Z,4.83
2018-08-22T08:14:34.592Z,5.07
2018-08-22T08:17:02.851Z,5.00
2018-08-22T08:19:31.071Z,5.33
2018-08-22T08:21:59.304Z,4.13
2018-08-22T08:24:28.440Z,4.67
2018-08-22T08:26:56.700Z,4.80
2018-08-22T08:29:24.882Z,5.03
2018-08-22T08:31:53.120Z,4.80
2018-08-22T08:34:21.319Z,4.40
2018-08-22T08:36:49.564Z,4.80
2018-08-22T08:39:17.819Z,4.73
2018-08-22T08:41:46.140Z,4.67
2018-08-22T08:44:14.321Z,4.77
2018-08-22T08:46:42.546Z,4.63
2018-08-22T08:49:10.742Z,4.50
2018-08-22T08:51:50.383Z,4.10
2018-08-22T08:54:18.653Z,4.90
2018-08-22T08:56:46.860Z,4.43
2018-08-22T08:59:15.113Z,4.23
2018-08-22T09:01:43.381Z,4.57
2018-08-22T09:04:11.573Z,4.43
2018-08-22T09:06:39.888Z,4.73
2018-08-22T09:09:09.196Z,4.13
2018-08-22T09:11:43.366Z,4.73
2018-08-22T09:14:11.549Z,4.73
2018-08-22T09:16:39.736Z,4.57
2018-08-22T09:19:08.067Z,4.60
2018-08-22T09:21:36.292Z,4.00
2018-08-22T09:24:04.527Z,4.23
2018-08-22T09:26:32.729Z,5.50
2018-08-22T09:29:00.981Z,4.40
2018-08-22T09:31:29.526Z,4.90
2018-08-22T09:33:57.760Z,4.73
2018-08-22T09:36:25.988Z,4.70
2018-08-22T09:38:54.246Z,4.80
2018-08-22T09:41:22.538Z,5.00
2018-08-22T09:43:50.730Z,5.03
2018-08-22T09:46:18.964Z,5.00
2018-08-22T09:48:47.545Z,4.67
2018-08-22T09:51:15.800Z,5.00
2018-08-22T09:53:44.052Z,4.90
2018-08-22T09:56:12.248Z,4.70
2018-08-22T09:58:40.469Z,5.40
2018-08-22T10:01:13.836Z,5.10
2018-08-22T10:03:53.336Z,5.03
2018-08-22T10:06:29.914Z,5.23
2018-08-22T10:09:00.548Z,5.33
2018-08-22T10:11:28.808Z,4.43
2018-08-22T10:13:57.856Z,5.10
2018-08-22T10:16:27.605Z,4.93
2018-08-22T10:18:56.150Z,5.50
2018-08-22T10:21:25.144Z,5.10
2018-08-22T10:23:53.348Z,5.53
2018-08-22T10:26:21.636Z,5.43
2018-08-22T10:28:49.996Z,5.40
2018-08-22T10:31:18.228Z,4.47
2018-08-22T10:33:46.516Z,5.60
2018-08-22T10:36:14.798Z,5.33
2018-08-22T10:38:43.091Z,5.07
2018-08-22T10:41:11.349Z,5.00
2018-08-22T10:43:39.707Z,4.80
2018-08-22T10:46:08.316Z,5.93
2018-08-22T10:48:36.533Z,5.75
2018-08-22T10:51:05.002Z,5.25
2018-08-22T10:53:33.234Z,5.30
2018-08-22T10:56:01.465Z,5.47
2018-08-22T10:58:29.681Z,5.35
2018-08-22T11:00:57.948Z,4.75
2018-08-22T11:03:26.141Z,5.10
2018-08-22T11:05:54.351Z,5.17
2018-08-22T11:08:22.573Z,5.25
2018-08-22T11:10:50.801Z,5.42
2018-08-22T11:13:19.047Z,5.78
2018-08-22T11:15:47.372Z,5.78
2018-08-22T11:18:15.587Z,5.58
2018-08-22T11:20:52.954Z,4.70
2018-08-22T11:23:33.144Z,5.08
2018-08-22T11:26:13.528Z,5.87
2018-08-22T11:28:53.040Z,5.62
2018-08-22T11:31:32.740Z,5.40
2018-08-22T11:34:12.463Z,5.62
2018-08-22T11:36:41.160Z,4.87
2018-08-22T11:39:09.364Z,5.42
2018-08-22T11:41:37.605Z,5.45
2018-08-22T11:44:05.849Z,5.42
2018-08-22T11:46:34.068Z,5.20
2018-08-22T11:49:02.285Z,5.10
2018-08-22T11:51:30.512Z,5.67
2018-08-22T11:53:58.740Z,5.05
2018-08-22T11:56:26.948Z,4.97
2018-08-22T11:58:55.192Z,5.53
2018-08-22T12:01:23.386Z,5.28
2018-08-22T12:03:51.621Z,5.20
2018-08-22T12:06:19.815Z,5.25
2018-08-22T12:08:48.053Z,4.97
2018-08-22T12:11:16.284Z,4.75
2018-08-22T12:13:45.220Z,5.08
2018-08-22T12:16:13.536Z,4.95
2018-08-22T12:18:41.714Z,5.15
2018-08-22T12:21:09.945Z,5.40
2018-08-22T12:23:38.236Z,5.85
2018-08-22T12:26:06.472Z,5.22
2018-08-22T12:28:34.697Z,5.53
2018-08-22T12:31:02.979Z,5.40
2018-08-22T12:33:31.197Z,5.75
2018-08-22T12:35:59.428Z,5.45
2018-08-22T12:38:27.992Z,5.55
2018-08-22T12:40:56.197Z,5.15
2018-08-22T12:43:24.428Z,5.42
2018-08-22T12:45:52.648Z,5.53
2018-08-22T12:48:20.906Z,4.85
2018-08-22T12:50:49.134Z,5.40
2018-08-22T12:53:17.398Z,5.30
2018-08-22T12:55:45.644Z,4.80
2018-08-22T12:58:13.884Z,5.08
2018-08-22T13:00:42.106Z,4.85
2018-08-22T13:03:10.340Z,4.80
2018-08-22T13:05:38.548Z,4.60
2018-08-22T13:08:06.789Z,5.05
2018-08-22T13:10:35.032Z,5.60
2018-08-22T13:13:03.228Z,5.55
2018-08-22T13:15:31.467Z,5.47
2018-08-22T13:17:59.686Z,5.60
2018-08-22T13:20:27.946Z,5.22
2018-08-22T13:22:56.253Z,4.97
2018-08-22T13:25:24.478Z,5.10
2018-08-22T13:27:52.692Z,5.30
2018-08-22T13:30:20.956Z,5.35
2018-08-22T13:32:49.168Z,4.80
2018-08-22T13:35:17.435Z,5.58
2018-08-22T13:37:45.664Z,4.90
2018-08-22T13:40:13.904Z,5.05
2018-08-22T13:42:42.172Z,4.62
2018-08-22T13:45:10.752Z,5.05
2018-08-22T13:47:38.992Z,5.08
2018-08-22T13:50:07.291Z,4.80
2018-08-22T13:52:35.508Z,4.78
2018-08-22T13:55:03.732Z,4.80
2018-08-22T13:57:31.936Z,4.65
2018-08-22T14:00:00.200Z,4.60
2018-08-22T14:02:28.441Z,5.03
2018-08-22T14:04:56.672Z,5.20
2018-08-22T14:07:24.877Z,4.92
2018-08-22T14:09:53.117Z,4.90
2018-08-22T14:12:21.340Z,4.15
2018-08-22T14:14:49.562Z,4.90
2018-08-22T14:17:17.786Z,5.37
2018-08-22T14:19:45.989Z,5.10
2018-08-22T14:22:14.289Z,5.37
2018-08-22T14:24:42.500Z,5.12
2018-08-22T14:27:10.724Z,4.55
2018-08-22T14:29:38.931Z,4.55
2018-08-22T14:32:07.262Z,4.67
2018-08-22T14:34:35.716Z,5.03
2018-08-22T14:37:03.916Z,5.22
2018-08-22T14:39:32.141Z,5.00
2018-08-22T14:42:00.364Z,4.70
2018-08-22T14:44:28.649Z,4.78
2018-08-22T14:46:56.930Z,4.87
2018-08-22T14:49:26.016Z,4.67
2018-08-22T14:51:54.208Z,4.15
2018-08-22T14:54:22.431Z,4.47
2018-08-22T14:56:50.672Z,4.83
2018-08-22T14:59:18.886Z,4.67
2018-08-22T15:01:47.126Z,4.42
2018-08-22T15:04:15.356Z,5.03
2018-08-22T15:06:43.580Z,4.33
2018-08-22T15:09:18.316Z,4.83
2018-08-22T15:11:46.705Z,4.50
2018-08-22T15:14:15.020Z,4.53
2018-08-22T15:16:43.276Z,4.33
2018-08-22T15:19:11.549Z,4.40
2018-08-22T15:21:39.744Z,4.60
2018-08-22T15:24:08.147Z,4.50
2018-08-22T15:26:36.392Z,4.80
2018-08-22T15:29:04.994Z,5.25
2018-08-22T15:31:33.199Z,4.60
2018-08-22T15:34:01.595Z,4.80
2018-08-22T15:36:29.839Z,4.40
2018-08-22T15:38:58.080Z,4.65
2018-08-22T15:41:26.281Z,4.70
2018-08-22T15:43:54.536Z,4.87
2018-08-22T15:46:22.767Z,4.45
2018-08-22T15:48:50.959Z,4.35
2018-08-22T15:51:19.205Z,4.35
2018-08-22T15:54:01.794Z,4.67
2018-08-22T15:56:29.988Z,4.65
2018-08-22T15:58:58.314Z,4.10
2018-08-22T16:01:26.436Z,4.37
2018-08-22T16:03:54.657Z,4.50
2018-08-22T16:06:22.913Z,4.20
2018-08-22T16:08:51.149Z,4.65
2018-08-22T16:11:19.340Z,4.67
2018-08-22T16:13:47.615Z,4.58
2018-08-22T16:16:15.868Z,4.17
2018-08-22T16:18:44.104Z,4.70
2018-08-22T16:21:12.337Z,4.58
2018-08-22T16:23:41.221Z,4.87
2018-08-22T16:26:09.464Z,4.92
2018-08-22T16:28:50.892Z,4.75
2018-08-22T16:31:19.537Z,4.28
2018-08-22T16:33:47.779Z,4.28
2018-08-22T16:36:25.149Z,4.83
2018-08-22T16:38:53.468Z,4.55
2018-08-22T16:41:21.728Z,4.30
2018-08-22T16:43:50.098Z,4.37
2018-08-22T16:46:18.290Z,4.55
2018-08-22T16:48:49.420Z,4.45
2018-08-22T16:51:17.641Z,4.20
2018-08-22T16:53:55.848Z,5.03
2018-08-22T16:56:24.284Z,4.67
2018-08-22T16:58:56.728Z,4.15
2018-08-22T17:01:25.075Z,4.22
2018-08-22T17:03:53.324Z,5.05
2018-08-22T17:06:21.541Z,4.30
2018-08-22T17:08:49.784Z,4.60
2018-08-22T17:11:18.069Z,3.92
2018-08-22T17:13:48.695Z,4.70
2018-08-22T17:16:16.941Z,4.87
2018-08-22T17:18:45.260Z,4.30
2018-08-22T17:21:14.852Z,4.87
2018-08-22T17:23:43.513Z,4.92
2018-08-22T17:26:12.776Z,4.85
2018-08-22T17:28:43.164Z,5.50
2018-08-22T17:31:12.140Z,4.67
2018-08-22T17:33:41.770Z,4.42
2018-08-22T17:36:10.949Z,5.10
2018-08-22T17:38:42.351Z,4.95
2018-08-22T17:41:10.603Z,4.92
2018-08-22T17:43:55.801Z,4.95
2018-08-22T17:46:26.016Z,4.70
2018-08-22T17:48:54.477Z,5.20
2018-08-22T17:51:22.901Z,5.40
2018-08-22T17:53:51.192Z,4.33
2018-08-22T17:56:20.017Z,4.12
2018-08-22T17:58:49.069Z,5.37
2018-08-22T18:01:17.273Z,4.60
2018-08-22T18:03:45.500Z,5.70
2018-08-22T18:06:14.153Z,5.45
2018-08-22T18:08:42.377Z,5.10
2018-08-22T18:11:10.564Z,5.20
2018-08-22T18:13:39.012Z,4.67
2018-08-22T18:16:07.205Z,5.50
2018-08-22T18:18:35.784Z,5.33
2018-08-22T18:21:03.989Z,5.07
2018-08-22T18:23:32.187Z,4.73
2018-08-22T18:26:02.561Z,5.03
2018-08-22T18:28:30.756Z,5.20
2018-08-22T18:30:58.988Z,5.70
2018-08-22T18:33:27.176Z,5.13
2018-08-22T18:35:55.464Z,5.67
2018-08-22T18:38:23.665Z,5.33
2018-08-22T18:41:03.248Z,5.53
2018-08-22T18:43:31.469Z,6.27
2018-08-22T18:46:04.845Z,5.57
2018-08-22T18:48:34.139Z,5.50
2018-08-22T18:51:02.752Z,5.57
2018-08-22T18:53:31.037Z,5.57
2018-08-22T18:56:12.754Z,6.13
2018-08-22T18:58:41.038Z,5.57
2018-08-22T19:01:09.247Z,7.73
2018-08-22T19:03:37.489Z,5.90
2018-08-22T19:06:05.984Z,6.13
2018-08-22T19:08:35.728Z,5.70
2018-08-22T19:11:03.973Z,5.93
2018-08-22T19:13:32.140Z,6.00
2018-08-22T19:16:02.620Z,6.30
2018-08-22T19:18:30.857Z,6.40
2018-08-22T19:21:00.936Z,5.60
2018-08-22T19:23:29.447Z,6.60
2018-08-22T19:25:58.465Z,5.77
2018-08-22T19:28:26.772Z,5.90
2018-08-22T19:30:54.986Z,6.03
2018-08-22T19:33:24.456Z,6.23
2018-08-22T19:35:52.685Z,6.27
2018-08-22T19:38:24.009Z,6.47
2018-08-22T19:40:52.372Z,6.93
2018-08-22T19:43:20.603Z,7.40
2018-08-22T19:45:48.805Z,7.27
2018-08-22T19:48:17.026Z,7.10
2018-08-22T19:50:45.232Z,6.73
2018-08-22T19:53:13.556Z,6.57
2018-08-22T19:55:41.747Z,6.50
2018-08-22T19:58:10.094Z,6.23
2018-08-22T20:00:38.293Z,7.53
2018-08-22T20:03:06.528Z,6.53
2018-08-22T20:05:56.328Z,6.70
2018-08-22T20:08:28.174Z,6.40
2018-08-22T20:10:57.436Z,7.10
2018-08-22T20:13:30.709Z,6.10
2018-08-22T20:15:58.933Z,6.67
2018-08-22T20:18:27.217Z,8.07
2018-08-22T20:20:55.420Z,7.43
2018-08-22T20:23:23.670Z,7.40
2018-08-22T20:25:51.856Z,7.00
2018-08-22T20:28:20.048Z,6.70
2018-08-22T20:30:48.406Z,7.07
2018-08-22T20:33:16.630Z,6.87
2018-08-22T20:35:44.852Z,6.57
2018-08-22T20:38:13.485Z,7.20
2018-08-22T20:40:41.692Z,6.93
2018-08-22T20:43:41.073Z,10.67
2018-08-22T20:46:09.308Z,9.10
2018-08-22T20:48:37.560Z,8.23
2018-08-22T20:51:06.043Z,7.20
2018-08-22T20:53:34.276Z,7.73
2018-08-22T20:56:02.479Z,6.97
2018-08-22T20:58:31.920Z,7.73
2018-08-22T21:01:00.833Z,7.60
2018-08-22T21:03:29.030Z,7.67
2018-08-22T21:05:57.260Z,7.70
2018-08-22T21:08:25.532Z,8.00
2018-08-22T21:10:53.721Z,7.30
2018-08-22T21:13:28.286Z,7.60
2018-08-22T21:15:56.696Z,8.03
2018-08-22T21:18:24.921Z,7.33
2018-08-22T21:20:53.112Z,8.00
2018-08-22T21:23:21.309Z,8.07
2018-08-22T21:25:49.546Z,7.10
2018-08-22T21:28:23.264Z,7.67
2018-08-22T21:30:56.912Z,8.60
2018-08-22T21:33:25.164Z,8.47
2018-08-22T21:35:53.528Z,7.90
2018-08-22T21:38:21.732Z,8.37
2018-08-22T21:40:49.940Z,8.27
2018-08-22T21:43:18.444Z,8.10
2018-08-22T21:45:48.576Z,8.07
2018-08-22T21:48:22.248Z,8.07
2018-08-22T21:50:50.463Z,8.50
2018-08-22T21:53:18.686Z,8.43
2018-08-22T21:55:49.614Z,8.53
2018-08-22T21:58:17.836Z,7.90
2018-08-22T22:00:46.101Z,8.20
2018-08-22T22:03:14.853Z,8.33
2018-08-22T22:05:47.229Z,9.13
2018-08-22T22:08:15.444Z,8.83
2018-08-22T22:10:43.674Z,8.57
2018-08-22T22:13:12.152Z,8.77
2018-08-22T22:15:44.481Z,8.37
2018-08-22T22:18:12.704Z,8.40
2018-08-22T22:20:41.172Z,8.80
2018-08-22T22:23:09.388Z,8.83
2018-08-22T22:25:37.619Z,8.43
2018-08-22T22:28:06.254Z,7.60
2018-08-22T22:30:34.391Z,8.87
2018-08-22T22:33:02.692Z,8.63
2018-08-22T22:35:37.484Z,8.40
2018-08-22T22:38:09.937Z,9.00
2018-08-22T22:40:38.572Z,8.77
2018-08-22T22:43:08.822Z,9.60
2018-08-22T22:45:37.246Z,8.10
2018-08-22T22:48:05.556Z,8.67
2018-08-22T22:50:34.052Z,9.20
2018-08-22T22:53:03.193Z,8.87
2018-08-22T22:55:32.056Z,8.53
2018-08-22T22:58:01.169Z,8.83
2018-08-22T23:00:30.475Z,9.03
2018-08-22T23:03:04.120Z,8.63
2018-08-22T23:05:32.748Z,9.57
2018-08-22T23:08:02.176Z,8.87
2018-08-22T23:10:30.412Z,9.13
2018-08-22T23:12:58.841Z,8.47
2018-08-22T23:15:29.262Z,9.27
2018-08-22T23:17:58.883Z,9.63
2018-08-22T23:20:41.233Z,9.80
2018-08-22T23:23:26.717Z,9.50
2018-08-22T23:25:56.160Z,9.50
2018-08-22T23:28:24.516Z,9.50
2018-08-22T23:30:52.755Z,10.07
2018-08-22T23:33:21.104Z,9.17
2018-08-22T23:35:49.300Z,10.40
2018-08-22T23:38:26.894Z,9.83
2018-08-22T23:40:55.092Z,10.03
2018-08-22T23:43:23.464Z,9.53
2018-08-22T23:45:57.604Z,9.90
2018-08-22T23:48:31.613Z,9.67
2018-08-22T23:51:02.211Z,9.17
2018-08-22T23:53:40.271Z,9.07
2018-08-22T23:56:13.732Z,9.27
2018-08-22T23:58:43.310Z,10.00
